This is the latest recevied weather packets stored in our database for station/object AC2JK-WX. If no packets are shown the sender has not sent any weather packets the latest 1 day(s).
| Time | Temp. | Humidity | Pressure | Rain* | Wind** | Luminosity | Snow |
|---|---|---|---|---|---|---|---|
| 1778010430 | 12.78° C | 81% | 1007 hPa | 0 mm | - | - | - |
| 1778009830 | 13.89° C | 76% | 1007 hPa | 0 mm | - | - | - |
| 1778009531 | 14.44° C | 75% | 1006 hPa | 0 mm | - | - | - |
| 1778008930 | 16.11° C | 70% | 1006 hPa | 0 mm | - | - | - |
| 1778008630 | 17.78° C | 65% | 1006 hPa | 0 mm | - | - | - |
| 1778008330 | 18.89° C | 64% | 1006 hPa | 0 mm | - | - | - |
| 1778008030 | 18.89° C | 64% | 1006 hPa | 0 mm | - | - | - |
| 1778007730 | 18.89° C | 62% | 1006 hPa | 0 mm | - | - | - |
| 1778003830 | 18.89° C | 63% | 1006 hPa | 0 mm | - | - | - |
| 1778001130 | 18.33° C | 65% | 1006 hPa | 0 mm | - | - | - |
| 1778000530 | 18.33° C | 64% | 1006 hPa | 0 mm | - | - | - |
| 1777999630 | 19.44° C | 61% | 1005 hPa | 0 mm | - | - | - |
| 1777998430 | 19.44° C | 61% | 1005 hPa | 0 mm | - | - | - |
| 1777998130 | 18.89° C | 63% | 1005 hPa | 0 mm | - | - | - |
| 1777997530 | 18.33° C | 63% | 1005 hPa | 0 mm | - | - | - |
| 1777996930 | 17.22° C | 66% | 1005 hPa | 0 mm | - | - | - |
| 1777996330 | 16.67° C | 67% | 1005 hPa | 0 mm | - | - | - |
| 1777996031 | 16.67° C | 66% | 1005 hPa | 0 mm | - | - | - |
| 1777995130 | 17.78° C | 62% | 1005 hPa | 0 mm | - | - | - |
| 1777994530 | 18.33° C | 61% | 1005 hPa | 0 mm | - | - | - |
| 1777993030 | 17.78° C | 65% | 1004 hPa | 0 mm | - | - | - |
| 1777992731 | 17.22° C | 66% | 1004 hPa | 0 mm | - | - | - |
| 1777992430 | 17.22° C | 66% | 1004 hPa | 0 mm | - | - | - |
* Rain latest hour (hover to see other rain measurements)
** Current wind speed in m/s (hover to see current wind gust speed)